Time;durP1;ratioP1;P1;durP2;ratioP2;P2;SDS_P1;SDS_P2;PMS_P1;PMS_P2;Temp;Humidity;BMP_temperature;BMP_pressure;BME280_temperature;BME280_humidity;BME280_pressure;Samples;Min_cycle;Max_cycle;Signal;HPM_P1;HPM_P2
2024/02/21 00:00:52;;;;;;;10.20;3.97;;;12.50;99.90;;;;;;4931074;29;20227;-75
2024/02/21 00:03:21;;;;;;;7.70;3.57;;;12.40;99.90;;;;;;4932032;29;20604;-75
2024/02/21 00:05:46;;;;;;;6.53;2.83;;;12.50;99.90;;;;;;4929049;29;21246;-75
2024/02/21 00:08:12;;;;;;;6.67;3.27;;;12.50;99.90;;;;;;4921385;29;20696;-75
2024/02/21 00:10:38;;;;;;;9.60;3.47;;;12.50;99.90;;;;;;4929733;29;20181;-75
2024/02/21 00:13:04;;;;;;;8.83;3.90;;;12.50;99.90;;;;;;4932862;29;21130;-75
2024/02/21 00:15:29;;;;;;;8.60;3.60;;;12.50;99.90;;;;;;4932943;29;20244;-75
2024/02/21 00:17:55;;;;;;;8.80;3.40;;;12.50;99.90;;;;;;4931626;29;20240;-75
2024/02/21 00:20:21;;;;;;;5.23;3.30;;;12.50;99.90;;;;;;4931111;29;20268;-75
2024/02/21 00:22:47;;;;;;;7.70;3.37;;;12.50;99.90;;;;;;4933881;29;20297;-75
2024/02/21 00:25:12;;;;;;;5.90;3.40;;;12.50;99.90;;;;;;4915275;29;20193;-76
2024/02/21 00:27:41;;;;;;;8.10;3.00;;;12.50;99.90;;;;;;4932721;29;20185;-75
2024/02/21 00:30:07;;;;;;;9.02;3.53;;;12.50;99.90;;;;;;4933787;29;20188;-75
2024/02/21 00:32:34;;;;;;;13.27;3.90;;;12.50;99.90;;;;;;4933670;29;20201;-75
2024/02/21 00:35:01;;;;;;;10.07;3.90;;;12.50;99.90;;;;;;4929102;29;20588;-75
2024/02/21 00:37:27;;;;;;;8.20;3.83;;;12.50;99.90;;;;;;4928310;29;20656;-75
2024/02/21 00:39:54;;;;;;;10.20;5.30;;;12.50;99.90;;;;;;4916408;29;21243;-75
2024/02/21 00:42:21;;;;;;;6.83;3.60;;;12.50;99.90;;;;;;4923013;29;20620;-75
2024/02/21 00:44:47;;;;;;;8.80;3.30;;;12.50;99.90;;;;;;4900259;29;20589;-75
2024/02/21 00:47:12;;;;;;;9.00;3.53;;;12.50;99.90;;;;;;4926021;29;20647;-76
2024/02/21 00:49:38;;;;;;;7.93;3.13;;;12.50;99.90;;;;;;4925799;29;20947;-75
2024/02/21 00:52:04;;;;;;;9.67;3.40;;;12.50;99.90;;;;;;4933001;29;20208;-76
2024/02/21 00:54:29;;;;;;;11.20;3.60;;;12.50;99.90;;;;;;4917015;29;20272;-75
2024/02/21 00:56:55;;;;;;;5.53;3.30;;;12.50;99.90;;;;;;4919770;29;20189;-75
2024/02/21 00:59:23;;;;;;;8.43;3.65;;;12.50;99.90;;;;;;4927634;29;20340;-75
2024/02/21 01:01:49;;;;;;;8.37;3.70;;;12.50;99.90;;;;;;4912798;29;20308;-75
2024/02/21 01:04:15;;;;;;;10.50;3.30;;;12.50;99.90;;;;;;4918439;29;21165;-75
2024/02/21 01:06:43;;;;;;;9.60;3.70;;;12.50;99.90;;;;;;4931450;29;20220;-75
2024/02/21 01:09:10;;;;;;;6.10;2.60;;;12.40;99.90;;;;;;4909553;29;20610;-75
2024/02/21 01:11:36;;;;;;;7.63;3.50;;;12.40;99.90;;;;;;4922575;29;20622;-75
2024/02/21 01:14:02;;;;;;;10.50;3.37;;;12.40;99.90;;;;;;4919250;29;21204;-75
2024/02/21 01:16:28;;;;;;;5.05;2.80;;;12.40;99.90;;;;;;4928720;29;20592;-75
2024/02/21 01:18:54;;;;;;;6.77;3.90;;;12.40;99.90;;;;;;4927301;29;20710;-75
2024/02/21 01:21:19;;;;;;;10.37;3.40;;;12.40;99.90;;;;;;4934777;29;20208;-75
2024/02/21 01:23:45;;;;;;;7.97;3.77;;;12.40;99.90;;;;;;4910491;29;20671;-75
2024/02/21 01:26:13;;;;;;;7.37;3.10;;;12.40;99.90;;;;;;4913574;29;20768;-75
2024/02/21 01:28:40;;;;;;;9.67;3.40;;;12.40;99.90;;;;;;4924994;29;20504;-76
2024/02/21 01:31:05;;;;;;;10.90;3.93;;;12.40;99.90;;;;;;4930929;29;20984;-76
2024/02/21 01:33:34;;;;;;;6.17;3.13;;;12.40;99.90;;;;;;4935989;29;20658;-75
2024/02/21 01:36:06;;;;;;;9.27;3.37;;;12.40;99.90;;;;;;4935791;29;20221;-75
2024/02/21 01:38:35;;;;;;;12.97;3.40;;;12.40;99.90;;;;;;4933628;29;20700;-76
2024/02/21 01:41:01;;;;;;;12.35;3.65;;;12.40;99.90;;;;;;4928548;29;20715;-75
2024/02/21 01:43:26;;;;;;;10.43;4.43;;;12.40;99.90;;;;;;4934449;29;20259;-76
2024/02/21 01:45:54;;;;;;;8.90;3.30;;;12.40;99.90;;;;;;4918439;29;20750;-76
2024/02/21 01:48:22;;;;;;;8.73;3.80;;;12.50;99.90;;;;;;4935430;29;20208;-76
2024/02/21 01:50:49;;;;;;;10.20;3.93;;;12.40;99.90;;;;;;4920065;29;20689;-75
2024/02/21 01:53:21;;;;;;;7.00;2.90;;;12.40;99.90;;;;;;4927037;29;20683;-76
2024/02/21 01:55:47;;;;;;;9.43;3.77;;;12.40;99.90;;;;;;4934202;29;20692;-75
2024/02/21 01:58:20;;;;;;;5.10;2.88;;;12.50;99.90;;;;;;4935260;29;20604;-74
2024/02/21 02:00:47;;;;;;;10.23;3.57;;;12.40;99.90;;;;;;4932279;29;20188;-75
2024/02/21 02:03:17;;;;;;;7.80;3.40;;;12.50;99.90;;;;;;4929558;29;21270;-75
2024/02/21 02:05:47;;;;;;;9.20;3.87;;;12.50;99.90;;;;;;4934198;29;20212;-76
2024/02/21 02:08:18;;;;;;;6.80;4.10;;;12.40;99.90;;;;;;4917028;29;20616;-74
2024/02/21 02:10:44;;;;;;;11.00;3.83;;;12.40;99.90;;;;;;4924876;29;20596;-76
2024/02/21 02:13:10;;;;;;;10.23;3.73;;;12.50;99.90;;;;;;4916169;29;20721;-75
2024/02/21 02:15:46;;;;;;;6.40;3.00;;;12.40;99.90;;;;;;4931155;29;20699;-75
2024/02/21 02:18:12;;;;;;;7.63;3.17;;;12.40;99.90;;;;;;4933809;29;20212;-74
2024/02/21 02:20:39;;;;;;;7.07;4.10;;;12.40;99.90;;;;;;4935006;29;20597;-75
2024/02/21 02:23:31;;;;;;;7.05;3.38;;;12.40;99.90;;;;;;4924888;29;20585;-75
2024/02/21 02:25:57;;;;;;;8.23;3.58;;;12.40;99.90;;;;;;4926790;29;20312;-75
2024/02/21 02:28:24;;;;;;;10.27;3.87;;;12.40;99.90;;;;;;4933072;29;20177;-75
2024/02/21 02:30:50;;;;;;;9.75;3.10;;;12.40;99.90;;;;;;4933966;29;20585;-76
2024/02/21 02:33:19;;;;;;;7.57;3.87;;;12.40;99.90;;;;;;4965354;23;20246;-74
2024/02/21 02:35:45;;;;;;;7.70;3.60;;;12.40;99.90;;;;;;4965815;28;20597;-74
2024/02/21 02:38:11;;;;;;;10.25;3.80;;;12.30;99.90;;;;;;4987164;28;20599;-74
2024/02/21 02:40:39;;;;;;;10.63;3.67;;;12.30;99.90;;;;;;4973807;28;20208;-74
2024/02/21 02:43:05;;;;;;;9.05;3.00;;;12.30;99.90;;;;;;4964685;28;20312;-73
2024/02/21 02:45:31;;;;;;;7.90;3.20;;;12.30;99.90;;;;;;4952763;29;20305;-73
2024/02/21 02:47:57;;;;;;;10.63;3.80;;;12.30;99.90;;;;;;4937112;29;20595;-74
2024/02/21 02:50:27;;;;;;;10.07;3.73;;;12.30;99.90;;;;;;4952983;29;20938;-76
2024/02/21 02:52:53;;;;;;;8.73;2.60;;;12.20;99.90;;;;;;4984446;28;21205;-78
2024/02/21 02:55:19;;;;;;;6.10;2.77;;;12.20;99.90;;;;;;4953985;28;20187;-76
2024/02/21 02:57:45;;;;;;;10.82;3.67;;;12.20;99.90;;;;;;4951756;28;20589;-77
2024/02/21 03:00:12;;;;;;;8.17;3.70;;;12.20;99.90;;;;;;4951801;28;20238;-76
2024/02/21 03:02:40;;;;;;;8.55;3.72;;;12.20;99.90;;;;;;4953308;28;20603;-76
2024/02/21 03:05:14;;;;;;;10.82;4.65;;;12.20;99.90;;;;;;4953456;28;20931;-77
2024/02/21 03:07:40;;;;;;;9.63;3.63;;;12.20;99.90;;;;;;4984694;28;20175;-77
2024/02/21 03:10:06;;;;;;;9.40;4.37;;;12.20;99.90;;;;;;4981618;28;20271;-76
2024/02/21 03:12:32;;;;;;;6.73;3.27;;;12.20;99.90;;;;;;4936100;29;20620;-77
2024/02/21 03:14:58;;;;;;;8.27;2.60;;;12.20;99.90;;;;;;4952061;29;20600;-76
2024/02/21 03:17:25;;;;;;;8.60;3.23;;;12.20;99.90;;;;;;4953212;29;20582;-76
2024/02/21 03:19:50;;;;;;;12.20;3.70;;;12.20;99.90;;;;;;4950779;29;20179;-76
2024/02/21 03:22:16;;;;;;;5.70;2.50;;;12.20;99.90;;;;;;4953194;28;20624;-76
2024/02/21 03:24:42;;;;;;;7.87;3.57;;;12.20;99.90;;;;;;4953254;29;20263;-77
2024/02/21 03:27:08;;;;;;;4.53;2.40;;;12.20;99.90;;;;;;4953057;28;20271;-76
2024/02/21 03:29:34;;;;;;;11.40;3.00;;;12.20;99.90;;;;;;4951003;28;20596;-77
2024/02/21 03:31:59;;;;;;;8.20;3.53;;;12.20;99.90;;;;;;4952383;28;20216;-76
2024/02/21 03:34:25;;;;;;;7.90;4.10;;;12.20;99.90;;;;;;4951601;28;20206;-77
2024/02/21 03:36:51;;;;;;;5.50;2.50;;;12.20;99.90;;;;;;4952881;28;20184;-76
2024/02/21 03:39:17;;;;;;;6.13;2.50;;;12.20;99.90;;;;;;4952733;29;20639;-77
2024/02/21 03:41:43;;;;;;;5.90;2.43;;;12.20;99.90;;;;;;4952844;28;20241;-77
2024/02/21 03:44:09;;;;;;;11.10;3.70;;;12.20;99.90;;;;;;4951441;29;20200;-77
2024/02/21 03:46:35;;;;;;;11.27;2.87;;;12.20;99.90;;;;;;4953108;29;20973;-75
2024/02/21 03:49:01;;;;;;;9.70;3.40;;;12.20;99.90;;;;;;4951830;29;20200;-74
2024/02/21 03:51:26;;;;;;;8.30;3.40;;;12.20;99.90;;;;;;4953291;29;20972;-74
2024/02/21 03:53:52;;;;;;;5.33;3.20;;;12.20;99.90;;;;;;4959621;28;20282;-77
2024/02/21 03:56:18;;;;;;;7.10;2.97;;;12.20;99.90;;;;;;4951489;28;20661;-77
2024/02/21 03:58:43;;;;;;;7.13;2.60;;;12.20;99.90;;;;;;4951569;28;20185;-76
2024/02/21 04:01:09;;;;;;;6.00;2.40;;;12.30;99.90;;;;;;4951842;29;20187;-77
2024/02/21 04:03:35;;;;;;;7.90;2.87;;;12.20;99.90;;;;;;4951270;29;20203;-74
2024/02/21 04:06:09;;;;;;;5.67;3.07;;;12.30;99.90;;;;;;4953150;29;20605;-74
2024/02/21 04:08:35;;;;;;;10.43;3.60;;;12.30;99.90;;;;;;4952986;29;20182;-75
2024/02/21 04:11:01;;;;;;;7.87;3.63;;;12.30;99.90;;;;;;4951697;29;20176;-75
2024/02/21 04:13:27;;;;;;;7.40;2.80;;;12.30;99.90;;;;;;4952924;28;20670;-74
2024/02/21 04:15:52;;;;;;;9.00;2.50;;;12.30;99.90;;;;;;4952972;28;20504;-75
2024/02/21 04:18:18;;;;;;;8.30;3.03;;;12.30;99.90;;;;;;4951376;29;20194;-75
2024/02/21 04:20:44;;;;;;;6.07;2.50;;;12.30;99.90;;;;;;4951730;29;20188;-75
2024/02/21 04:23:10;;;;;;;7.93;2.97;;;12.30;99.90;;;;;;4951590;28;20234;-75
2024/02/21 04:25:36;;;;;;;6.57;2.60;;;12.30;99.90;;;;;;4952961;29;20228;-75
2024/02/21 04:28:02;;;;;;;8.40;2.27;;;12.30;99.90;;;;;;4952596;28;20610;-75
2024/02/21 04:30:28;;;;;;;5.23;2.73;;;12.30;99.90;;;;;;4951770;29;20585;-75
2024/02/21 04:32:54;;;;;;;6.63;3.00;;;12.30;99.90;;;;;;4951068;29;20651;-78
2024/02/21 04:35:20;;;;;;;10.33;3.00;;;12.30;99.90;;;;;;4951468;29;21176;-74
2024/02/21 04:37:45;;;;;;;4.37;2.67;;;12.30;99.90;;;;;;4952819;29;20188;-74
2024/02/21 04:40:11;;;;;;;5.50;2.50;;;12.30;99.90;;;;;;4952804;29;20611;-74
2024/02/21 04:42:37;;;;;;;6.37;3.23;;;12.20;99.90;;;;;;4952972;28;20204;-74
2024/02/21 04:45:03;;;;;;;5.20;2.77;;;12.20;99.90;;;;;;4951363;29;20235;-74
2024/02/21 04:47:29;;;;;;;5.17;2.70;;;12.20;99.90;;;;;;4953228;29;20207;-74
2024/02/21 04:49:55;;;;;;;6.90;3.70;;;12.20;99.90;;;;;;4937985;29;20957;-73
2024/02/21 04:52:21;;;;;;;6.80;2.60;;;12.20;99.90;;;;;;4955224;29;20651;-74
2024/02/21 04:54:47;;;;;;;10.13;3.03;;;12.20;99.90;;;;;;4938383;29;20626;-73
2024/02/21 04:57:16;;;;;;;7.90;2.80;;;12.20;99.90;;;;;;4954285;29;20259;-73
2024/02/21 04:59:49;;;;;;;9.57;3.00;;;12.20;99.90;;;;;;4953263;29;20192;-73
2024/02/21 05:02:14;;;;;;;8.00;2.90;;;12.20;99.90;;;;;;4986350;28;20598;-74
2024/02/21 05:04:41;;;;;;;5.67;2.80;;;12.20;99.90;;;;;;4955390;29;20671;-73
2024/02/21 05:07:07;;;;;;;5.23;2.87;;;12.20;99.90;;;;;;4955149;28;20256;-72
2024/02/21 05:09:33;;;;;;;10.20;3.10;;;12.20;99.90;;;;;;4954707;29;20577;-73
2024/02/21 05:11:59;;;;;;;7.03;3.40;;;12.20;99.90;;;;;;4936937;29;20598;-73
2024/02/21 05:14:28;;;;;;;6.23;2.50;;;12.20;99.90;;;;;;4951307;29;20674;-73
2024/02/21 05:16:53;;;;;;;8.73;2.13;;;12.10;99.90;;;;;;4953473;29;20195;-73
2024/02/21 05:19:19;;;;;;;4.90;2.17;;;12.20;99.90;;;;;;4953364;29;20180;-73
2024/02/21 05:21:45;;;;;;;5.17;2.40;;;12.20;99.90;;;;;;4937414;29;20985;-73
2024/02/21 05:24:11;;;;;;;7.43;2.50;;;12.20;99.90;;;;;;4953948;28;20702;-73
2024/02/21 05:26:37;;;;;;;8.50;3.03;;;12.20;99.90;;;;;;4954009;29;20643;-73
2024/02/21 05:29:03;;;;;;;5.87;3.07;;;12.20;99.90;;;;;;4952315;28;20599;-73
2024/02/21 05:31:51;;;;;;;5.70;3.00;;;12.20;99.90;;;;;;4937232;29;20526;-73
2024/02/21 05:34:17;;;;;;;7.90;3.28;;;12.20;99.90;;;;;;4954947;28;20210;-73
2024/02/21 05:36:43;;;;;;;6.07;2.80;;;12.20;99.90;;;;;;4953873;29;20169;-73
2024/02/21 05:39:09;;;;;;;7.30;2.60;;;12.20;99.90;;;;;;4954322;28;20596;-73
2024/02/21 05:41:35;;;;;;;6.90;2.20;;;12.20;99.90;;;;;;4954857;29;20635;-73
2024/02/21 05:44:01;;;;;;;5.90;2.90;;;12.20;99.90;;;;;;4954892;28;20216;-73
2024/02/21 05:46:27;;;;;;;5.20;2.40;;;12.20;99.90;;;;;;4969502;28;21211;-73
2024/02/21 05:48:52;;;;;;;5.17;3.03;;;12.10;99.90;;;;;;4954070;28;20532;-73
2024/02/21 05:51:18;;;;;;;4.70;1.80;;;12.20;99.90;;;;;;4953621;29;20940;-73
2024/02/21 05:53:44;;;;;;;6.80;2.20;;;12.10;99.90;;;;;;4954412;28;20557;-73
2024/02/21 05:56:14;;;;;;;6.20;2.80;;;12.10;99.90;;;;;;4985598;28;20276;-73
2024/02/21 05:58:40;;;;;;;3.10;2.20;;;12.10;99.90;;;;;;4935583;29;20208;-73
2024/02/21 06:01:07;;;;;;;5.85;2.95;;;12.10;99.90;;;;;;4954068;29;20592;-73
2024/02/21 06:03:38;;;;;;;8.65;3.10;;;12.10;99.90;;;;;;4953107;29;20204;-74
2024/02/21 06:06:04;;;;;;;4.22;2.45;;;12.10;99.90;;;;;;4937275;29;20200;-74
2024/02/21 06:08:30;;;;;;;5.05;2.47;;;12.10;99.90;;;;;;4952476;29;20259;-74
2024/02/21 06:10:56;;;;;;;6.13;2.50;;;12.10;99.90;;;;;;4919132;28;20287;-74
2024/02/21 06:13:23;;;;;;;6.23;2.90;;;12.10;99.90;;;;;;4936897;29;20714;-74
2024/02/21 06:15:50;;;;;;;7.25;2.35;;;12.20;99.90;;;;;;4980182;28;20179;-74
2024/02/21 06:18:17;;;;;;;5.10;2.55;;;12.10;99.90;;;;;;4952614;29;20196;-74
2024/02/21 06:20:43;;;;;;;5.95;2.83;;;12.10;99.90;;;;;;4954523;28;20196;-74
2024/02/21 06:23:09;;;;;;;5.90;2.47;;;12.10;99.90;;;;;;4952397;28;20200;-74
2024/02/21 06:25:35;;;;;;;4.82;2.40;;;12.10;99.90;;;;;;4954296;28;21172;-74
2024/02/21 06:28:00;;;;;;;6.30;2.10;;;12.10;99.90;;;;;;4952759;29;20181;-74
2024/02/21 06:30:26;;;;;;;9.73;3.33;;;12.10;99.90;;;;;;4984668;28;20181;-74
2024/02/21 06:32:55;;;;;;;6.70;3.33;;;12.00;99.90;;;;;;4953610;28;20219;-74
2024/02/21 06:35:21;;;;;;;7.60;2.75;;;12.00;99.90;;;;;;4954334;28;20588;-74
2024/02/21 06:37:50;;;;;;;8.00;2.43;;;11.90;99.90;;;;;;4985251;28;20172;-74
2024/02/21 06:40:17;;;;;;;7.53;3.33;;;11.90;99.90;;;;;;4944645;29;20958;-74
2024/02/21 06:42:43;;;;;;;7.45;3.00;;;11.80;99.90;;;;;;4984679;28;20714;-74
2024/02/21 06:45:09;;;;;;;4.33;2.83;;;11.80;99.90;;;;;;4936548;29;20254;-74
2024/02/21 06:47:34;;;;;;;8.65;3.38;;;11.80;99.90;;;;;;4936265;29;20204;-74
2024/02/21 06:50:00;;;;;;;8.27;4.30;;;11.70;99.90;;;;;;4952016;29;20712;-74
2024/02/21 06:52:30;;;;;;;6.80;3.40;;;11.60;99.90;;;;;;4936680;29;20200;-74
2024/02/21 06:54:56;;;;;;;10.70;3.67;;;11.60;99.90;;;;;;4952153;29;20184;-74
2024/02/21 06:57:22;;;;;;;5.93;3.22;;;11.60;99.90;;;;;;4953108;28;20236;-74
2024/02/21 06:59:48;;;;;;;6.90;3.67;;;11.60;99.90;;;;;;4951287;28;20200;-74
2024/02/21 07:02:14;;;;;;;8.50;3.47;;;11.60;99.90;;;;;;4953225;28;21130;-73
2024/02/21 07:04:39;;;;;;;6.17;3.43;;;11.60;99.90;;;;;;4951910;29;20682;-73
2024/02/21 07:07:05;;;;;;;6.10;3.37;;;11.70;99.90;;;;;;4951848;29;20204;-74
2024/02/21 07:09:31;;;;;;;6.93;3.17;;;11.70;99.90;;;;;;4951374;28;20708;-74
2024/02/21 07:11:58;;;;;;;5.53;2.63;;;11.70;99.90;;;;;;4968029;28;20231;-74
2024/02/21 07:14:25;;;;;;;6.43;3.17;;;11.80;99.90;;;;;;4952093;29;20180;-73
2024/02/21 07:16:51;;;;;;;9.57;4.45;;;11.80;99.90;;;;;;4984365;28;20180;-73
2024/02/21 07:19:16;;;;;;;6.43;3.10;;;11.90;99.90;;;;;;4952674;29;20224;-74
2024/02/21 07:21:42;;;;;;;11.40;5.30;;;11.90;99.90;;;;;;4953315;29;20263;-74
2024/02/21 07:24:08;;;;;;;11.07;4.33;;;11.90;99.90;;;;;;4951490;28;20204;-74
2024/02/21 07:26:34;;;;;;;8.13;4.65;;;12.00;99.90;;;;;;4951873;29;20806;-74
2024/02/21 07:29:00;;;;;;;8.47;3.67;;;11.90;99.90;;;;;;4934615;29;20267;-74
2024/02/21 07:31:26;;;;;;;11.73;3.78;;;12.00;99.90;;;;;;4951805;29;20179;-74
2024/02/21 07:33:52;;;;;;;10.90;3.73;;;12.00;99.90;;;;;;4950482;29;20212;-74
2024/02/21 07:36:32;;;;;;;6.73;3.10;;;12.00;99.90;;;;;;4951676;29;20199;-74
2024/02/21 07:38:57;;;;;;;5.20;2.65;;;12.00;99.90;;;;;;4950860;29;20180;-74
2024/02/21 07:41:23;;;;;;;6.47;3.00;;;12.10;99.90;;;;;;4948605;28;20684;-74
2024/02/21 07:43:50;;;;;;;5.93;3.20;;;12.10;99.90;;;;;;4950742;28;20255;-74
2024/02/21 07:46:15;;;;;;;6.20;2.88;;;12.00;99.90;;;;;;4952217;29;20677;-74
2024/02/21 07:48:42;;;;;;;4.65;3.05;;;12.10;99.90;;;;;;4974699;28;20188;-74
2024/02/21 07:51:08;;;;;;;6.00;3.00;;;12.00;99.90;;;;;;4951083;29;20185;-74
2024/02/21 07:53:33;;;;;;;11.57;3.40;;;12.00;99.90;;;;;;4951654;28;20611;-74
2024/02/21 07:56:00;;;;;;;8.60;3.30;;;12.00;99.90;;;;;;4948569;28;20661;-74
2024/02/21 07:58:25;;;;;;;5.50;3.10;;;12.00;99.90;;;;;;4951216;29;20591;-74
2024/02/21 08:00:51;;;;;;;7.60;2.83;;;12.00;99.90;;;;;;4935751;29;20176;-74
2024/02/21 08:03:17;;;;;;;8.07;3.87;;;12.00;99.90;;;;;;4952124;28;20200;-74
2024/02/21 08:05:43;;;;;;;7.60;3.60;;;12.00;99.90;;;;;;4952643;28;20191;-74
2024/02/21 08:08:10;;;;;;;6.15;2.95;;;12.00;99.90;;;;;;4951948;28;20579;-74
2024/02/21 08:10:36;;;;;;;7.85;3.58;;;12.00;99.90;;;;;;4952659;28;20180;-75
2024/02/21 08:13:02;;;;;;;13.30;3.60;;;12.00;99.90;;;;;;4960494;28;20743;-74
2024/02/21 08:15:31;;;;;;;6.10;3.00;;;12.00;99.90;;;;;;4952735;28;20587;-74
2024/02/21 08:17:59;;;;;;;4.63;2.43;;;12.00;99.90;;;;;;4951188;29;20596;-74
2024/02/21 08:20:25;;;;;;;7.93;3.00;;;12.10;99.90;;;;;;4951562;28;20584;-74
2024/02/21 08:22:51;;;;;;;4.30;2.53;;;12.10;99.90;;;;;;4951024;29;20248;-74
2024/02/21 08:25:17;;;;;;;5.17;2.10;;;12.10;99.90;;;;;;4949623;28;20647;-74
2024/02/21 08:27:42;;;;;;;4.93;2.63;;;12.20;99.90;;;;;;4952010;28;20306;-73
2024/02/21 08:30:09;;;;;;;7.40;2.73;;;12.10;99.90;;;;;;4934356;29;20192;-73
2024/02/21 08:32:36;;;;;;;5.55;2.50;;;12.20;99.90;;;;;;4952043;28;20224;-73
2024/02/21 08:35:02;;;;;;;5.35;2.33;;;12.20;99.90;;;;;;4950656;29;20180;-74
2024/02/21 08:37:28;;;;;;;3.70;2.53;;;12.20;99.90;;;;;;4983466;28;20180;-74
2024/02/21 08:39:54;;;;;;;3.73;2.37;;;12.20;99.90;;;;;;4950138;29;20607;-74
2024/02/21 08:42:20;;;;;;;6.43;2.43;;;12.20;99.90;;;;;;4950791;28;20622;-74
2024/02/21 08:44:45;;;;;;;4.57;2.30;;;12.30;99.90;;;;;;4950976;29;20176;-74
2024/02/21 08:47:11;;;;;;;5.80;2.33;;;12.40;99.90;;;;;;4952087;29;20397;-74
2024/02/21 08:49:37;;;;;;;7.40;2.30;;;12.50;99.90;;;;;;4951784;28;20184;-74
2024/02/21 08:52:05;;;;;;;7.30;2.13;;;12.60;99.90;;;;;;4952236;29;20212;-74
2024/02/21 08:54:32;;;;;;;8.60;2.80;;;12.60;99.90;;;;;;4951958;28;20592;-74
2024/02/21 08:56:58;;;;;;;7.20;2.30;;;12.70;99.90;;;;;;4970009;28;20607;-74
2024/02/21 08:59:24;;;;;;;7.23;2.40;;;12.80;99.90;;;;;;4951415;29;20585;-74
2024/02/21 09:01:52;;;;;;;6.23;2.50;;;12.80;99.90;;;;;;4952203;28;20529;-74
2024/02/21 09:04:17;;;;;;;7.93;2.17;;;12.80;99.90;;;;;;4951760;28;20623;-75
2024/02/21 09:06:45;;;;;;;9.60;2.60;;;12.90;99.90;;;;;;4950694;29;21041;-74
2024/02/21 09:09:10;;;;;;;9.20;2.85;;;12.90;99.90;;;;;;4951092;29;20184;-74
2024/02/21 09:11:37;;;;;;;3.27;1.83;;;13.10;99.90;;;;;;4952048;28;20179;-75
2024/02/21 09:14:03;;;;;;;6.80;2.57;;;13.20;99.90;;;;;;4951650;28;20201;-75
2024/02/21 09:16:31;;;;;;;4.17;2.10;;;13.40;99.90;;;;;;4950470;29;20655;-75
2024/02/21 09:18:57;;;;;;;6.87;2.20;;;13.60;99.90;;;;;;4951093;28;20600;-75
2024/02/21 09:21:23;;;;;;;6.37;2.20;;;13.90;99.90;;;;;;4950348;29;21229;-75
2024/02/21 09:23:49;;;;;;;2.97;1.30;;;14.10;99.90;;;;;;4951357;28;20567;-75
2024/02/21 09:26:16;;;;;;;4.90;2.10;;;14.30;99.90;;;;;;4981015;28;20741;-76
2024/02/21 09:28:43;;;;;;;9.70;1.90;;;14.40;99.90;;;;;;4950867;28;20259;-75
2024/02/21 09:31:09;;;;;;;4.73;2.00;;;14.40;99.90;;;;;;4950309;29;20600;-75
2024/02/21 09:33:34;;;;;;;5.90;1.80;;;14.50;99.90;;;;;;4953094;28;20639;-75
2024/02/21 09:36:01;;;;;;;6.57;1.80;;;14.50;99.90;;;;;;4953425;29;20188;-75
2024/02/21 09:38:27;;;;;;;3.10;1.83;;;14.70;99.90;;;;;;4954033;29;20176;-76
2024/02/21 09:41:04;;;;;;;8.13;2.57;;;14.70;99.90;;;;;;4955008;29;20676;-75
2024/02/21 09:43:30;;;;;;;6.67;2.40;;;14.80;99.90;;;;;;4953655;28;20223;-76
2024/02/21 09:45:58;;;;;;;7.80;2.47;;;15.00;99.90;;;;;;4953380;29;20635;-76
2024/02/21 09:48:48;;;;;;;5.33;1.50;;;15.10;99.90;;;;;;4954182;29;20925;-75
2024/02/21 09:51:16;;;;;;;3.30;1.47;;;15.20;99.90;;;;;;4969242;28;20711;-75
2024/02/21 09:53:43;;;;;;;5.20;2.03;;;15.30;99.90;;;;;;4953283;29;21247;-76
2024/02/21 09:56:09;;;;;;;5.23;1.50;;;15.40;99.90;;;;;;4954411;29;20588;-76
2024/02/21 09:58:35;;;;;;;5.57;1.67;;;15.50;99.90;;;;;;4954046;28;20591;-75
2024/02/21 10:01:01;;;;;;;8.90;2.50;;;15.70;99.90;;;;;;4953282;29;20596;-76
2024/02/21 10:03:26;;;;;;;5.63;1.60;;;15.70;99.90;;;;;;4985504;28;20651;-75
2024/02/21 10:05:52;;;;;;;8.00;3.03;;;15.80;99.90;;;;;;4985103;28;20663;-76
2024/02/21 10:08:19;;;;;;;6.83;1.87;;;15.90;99.90;;;;;;4952848;28;20551;-76
2024/02/21 10:10:46;;;;;;;6.97;1.67;;;15.80;99.90;;;;;;4952815;29;20639;-76
2024/02/21 10:13:26;;;;;;;4.97;2.07;;;15.90;99.90;;;;;;4953544;28;20678;-76
2024/02/21 10:16:06;;;;;;;3.80;1.80;;;15.90;99.90;;;;;;4953172;28;20592;-76
2024/02/21 10:18:32;;;;;;;6.57;2.70;;;15.80;99.90;;;;;;4952436;28;20631;-75
2024/02/21 10:21:06;;;;;;;5.23;2.30;;;15.80;99.90;;;;;;4952854;29;20683;-76
2024/02/21 10:23:46;;;;;;;5.70;1.70;;;15.70;99.90;;;;;;4985415;28;20623;-76
2024/02/21 10:26:12;;;;;;;5.70;2.27;;;15.60;99.90;;;;;;4981685;28;20640;-77
2024/02/21 10:28:42;;;;;;;4.80;1.93;;;15.60;99.90;;;;;;4952232;29;20740;-77
2024/02/21 10:31:09;;;;;;;4.73;1.40;;;15.60;99.90;;;;;;4952763;28;20600;-76
2024/02/21 10:33:35;;;;;;;4.03;1.60;;;15.60;99.90;;;;;;4953835;28;21037;-76
2024/02/21 10:36:09;;;;;;;7.27;1.83;;;15.70;99.90;;;;;;4979520;28;20588;-76
2024/02/21 10:38:38;;;;;;;6.83;2.10;;;15.70;99.90;;;;;;4936156;29;20180;-76
2024/02/21 10:41:07;;;;;;;4.03;1.53;;;15.80;99.90;;;;;;4979938;28;20600;-75
2024/02/21 10:43:43;;;;;;;3.70;1.60;;;15.70;99.90;;;;;;4951789;28;20675;-75
2024/02/21 10:46:09;;;;;;;5.40;1.40;;;15.90;99.90;;;;;;4953582;28;20627;-75
2024/02/21 10:48:46;;;;;;;6.90;2.13;;;16.00;99.90;;;;;;4952852;28;20915;-75
2024/02/21 10:51:20;;;;;;;12.93;2.30;;;16.00;99.90;;;;;;4953669;28;20592;-76
2024/02/21 10:54:04;;;;;;;3.70;1.60;;;16.00;99.90;;;;;;4936491;29;20651;-75
2024/02/21 10:56:35;;;;;;;6.57;1.60;;;15.90;99.90;;;;;;4945786;28;20961;-76
2024/02/21 10:59:02;;;;;;;6.23;2.07;;;16.00;99.90;;;;;;4953096;28;20678;-76
2024/02/21 11:01:31;;;;;;;3.60;1.97;;;15.90;99.90;;;;;;4953416;28;20639;-76
2024/02/21 11:04:01;;;;;;;6.07;1.60;;;15.90;99.90;;;;;;4953276;28;20743;-75
2024/02/21 11:06:28;;;;;;;4.77;2.23;;;15.90;99.90;;;;;;4953302;28;20734;-76
2024/02/21 11:09:04;;;;;;;3.70;1.50;;;15.90;99.90;;;;;;4952355;29;20641;-76
2024/02/21 11:11:34;;;;;;;4.40;1.90;;;15.90;99.90;;;;;;4944436;29;20643;-75
2024/02/21 11:14:10;;;;;;;5.43;2.33;;;16.00;99.90;;;;;;4953743;28;20725;-76
2024/02/21 11:16:40;;;;;;;6.07;2.10;;;16.00;99.90;;;;;;4952037;29;20596;-76
2024/02/21 11:19:19;;;;;;;5.20;2.00;;;15.90;99.90;;;;;;4952103;28;20694;-76
2024/02/21 11:21:45;;;;;;;7.87;2.40;;;15.80;99.90;;;;;;4953321;29;21466;-75
2024/02/21 11:24:10;;;;;;;4.80;1.40;;;15.70;99.90;;;;;;4951585;29;20703;-76
2024/02/21 11:26:42;;;;;;;5.83;1.63;;;15.70;99.90;;;;;;4951467;29;20236;-76
2024/02/21 11:29:09;;;;;;;7.07;2.30;;;15.70;99.90;;;;;;4934925;29;20192;-76
2024/02/21 11:31:43;;;;;;;4.97;1.57;;;15.70;99.90;;;;;;4951838;29;20643;-76
2024/02/21 11:34:10;;;;;;;6.97;2.10;;;15.60;99.90;;;;;;4951165;29;20710;-76
2024/02/21 11:36:36;;;;;;;8.07;2.10;;;15.60;99.90;;;;;;4951651;29;20605;-75
2024/02/21 11:39:06;;;;;;;6.40;2.20;;;15.50;99.90;;;;;;4950726;29;20627;-75
2024/02/21 11:41:32;;;;;;;4.83;2.27;;;15.40;99.90;;;;;;4938581;28;20657;-75
2024/02/21 11:43:57;;;;;;;5.40;2.60;;;15.30;99.90;;;;;;4961686;28;20631;-75
2024/02/21 11:46:23;;;;;;;5.20;2.10;;;15.30;99.90;;;;;;4951350;29;20654;-75
2024/02/21 11:48:52;;;;;;;7.60;2.00;;;15.20;99.90;;;;;;4950324;29;20231;-75
2024/02/21 11:51:24;;;;;;;9.57;3.80;;;15.10;99.90;;;;;;4951382;29;20180;-75
2024/02/21 11:53:52;;;;;;;3.50;1.40;;;14.90;99.90;;;;;;4952868;28;20951;-75
2024/02/21 11:56:19;;;;;;;9.30;1.97;;;14.90;99.90;;;;;;4952724;28;20599;-75
2024/02/21 11:58:46;;;;;;;9.30;3.07;;;14.80;99.90;;;;;;4950265;29;20670;-75
2024/02/21 12:01:12;;;;;;;7.50;2.83;;;14.80;99.90;;;;;;4951140;29;20633;-75
2024/02/21 12:03:38;;;;;;;6.13;1.70;;;14.80;99.90;;;;;;4935285;29;20715;-76
2024/02/21 12:06:05;;;;;;;6.07;1.70;;;14.70;99.90;;;;;;4951173;29;20898;-75
2024/02/21 12:08:44;;;;;;;7.33;2.20;;;14.80;99.90;;;;;;4951570;28;20238;-75
2024/02/21 12:11:22;;;;;;;4.90;1.63;;;14.70;99.90;;;;;;4950935;29;20596;-75
2024/02/21 12:14:05;;;;;;;3.93;1.47;;;14.70;99.90;;;;;;4952565;28;20623;-75
2024/02/21 12:16:34;;;;;;;9.90;2.00;;;14.60;99.90;;;;;;4934964;29;20937;-75
2024/02/21 12:19:01;;;;;;;5.87;2.03;;;14.70;99.90;;;;;;4951431;28;20592;-75
2024/02/21 12:21:29;;;;;;;3.87;2.13;;;14.60;99.90;;;;;;4951021;29;20595;-75
2024/02/21 12:23:55;;;;;;;6.50;1.70;;;14.60;99.90;;;;;;4950687;29;21235;-75
2024/02/21 12:26:22;;;;;;;6.00;2.00;;;14.60;99.90;;;;;;4952034;29;20631;-76
2024/02/21 12:28:48;;;;;;;3.67;1.60;;;14.50;99.90;;;;;;4950268;29;20592;-75
2024/02/21 12:31:14;;;;;;;5.20;2.13;;;14.50;99.90;;;;;;4950689;29;21148;-75
2024/02/21 12:33:40;;;;;;;8.30;2.60;;;14.50;99.90;;;;;;4952205;28;20218;-76
2024/02/21 12:36:06;;;;;;;4.80;1.43;;;14.40;99.90;;;;;;4949529;29;20710;-75
2024/02/21 12:38:31;;;;;;;7.43;2.90;;;14.40;99.90;;;;;;4950295;28;20608;-75
2024/02/21 12:40:57;;;;;;;5.97;1.97;;;14.40;99.90;;;;;;4950808;28;20188;-75
2024/02/21 12:43:23;;;;;;;9.40;4.90;;;14.40;99.90;;;;;;4951271;28;20207;-75
2024/02/21 12:45:49;;;;;;;15.13;4.97;;;14.30;99.90;;;;;;4951813;29;20185;-75